sensor_id;sensor_type;location;lat;lon;timestamp;P1;P2;P0
80965;PMS5003;70426;37.772;-122.432;2023-09-19T00:00:34;8;7;
80965;PMS5003;70426;37.772;-122.432;2023-09-19T00:02:59;8;8;
80965;PMS5003;70426;37.772;-122.432;2023-09-19T00:05:24;6;6;
80965;PMS5003;70426;37.772;-122.432;2023-09-19T00:07:50;9;8;
80965;PMS5003;70426;37.772;-122.432;2023-09-19T00:10:14;8;6;
80965;PMS5003;70426;37.772;-122.432;2023-09-19T00:12:43;7;6;
80965;PMS5003;70426;37.772;-122.432;2023-09-19T00:15:04;7;6;
80965;PMS5003;70426;37.772;-122.432;2023-09-19T00:17:30;6;6;
80965;PMS5003;70426;37.772;-122.432;2023-09-19T00:19:55;7;7;
80965;PMS5003;70426;37.772;-122.432;2023-09-19T00:22:21;8;8;
80965;PMS5003;70426;37.772;-122.432;2023-09-19T00:24:46;11;9;
80965;PMS5003;70426;37.772;-122.432;2023-09-19T00:27:12;9;7;
80965;PMS5003;70426;37.772;-122.432;2023-09-19T00:29:37;8;7;
80965;PMS5003;70426;37.772;-122.432;2023-09-19T00:32:02;8;8;
80965;PMS5003;70426;37.772;-122.432;2023-09-19T00:34:28;8;7;
80965;PMS5003;70426;37.772;-122.432;2023-09-19T00:36:53;9;9;
80965;PMS5003;70426;37.772;-122.432;2023-09-19T00:39:19;9;9;
80965;PMS5003;70426;37.772;-122.432;2023-09-19T00:41:44;10;10;
80965;PMS5003;70426;37.772;-122.432;2023-09-19T00:44:09;8;8;
80965;PMS5003;70426;37.772;-122.432;2023-09-19T00:46:34;10;9;
80965;PMS5003;70426;37.772;-122.432;2023-09-19T00:48:59;7;7;
80965;PMS5003;70426;37.772;-122.432;2023-09-19T00:51:24;9;8;
80965;PMS5003;70426;37.772;-122.432;2023-09-19T00:53:54;10;10;
80965;PMS5003;70426;37.772;-122.432;2023-09-19T00:56:14;9;9;
80965;PMS5003;70426;37.772;-122.432;2023-09-19T00:58:40;8;8;
80965;PMS5003;70426;37.772;-122.432;2023-09-19T01:01:04;7;7;
80965;PMS5003;70426;37.772;-122.432;2023-09-19T01:03:29;10;10;
80965;PMS5003;70426;37.772;-122.432;2023-09-19T01:05:55;10;10;
80965;PMS5003;70426;37.772;-122.432;2023-09-19T01:08:20;9;8;
80965;PMS5003;70426;37.772;-122.432;2023-09-19T01:10:49;8;8;
80965;PMS5003;70426;37.772;-122.432;2023-09-19T01:13:12;8;8;
80965;PMS5003;70426;37.772;-122.432;2023-09-19T01:15:40;11;10;
80965;PMS5003;70426;37.772;-122.432;2023-09-19T01:18:02;9;8;
80965;PMS5003;70426;37.772;-122.432;2023-09-19T01:20:28;11;10;
80965;PMS5003;70426;37.772;-122.432;2023-09-19T01:22:56;7;7;
80965;PMS5003;70426;37.772;-122.432;2023-09-19T01:30:08;9;8;
80965;PMS5003;70426;37.772;-122.432;2023-09-19T01:32:32;9;8;
80965;PMS5003;70426;37.772;-122.432;2023-09-19T01:34:57;11;11;
80965;PMS5003;70426;37.772;-122.432;2023-09-19T01:37:22;9;9;
80965;PMS5003;70426;37.772;-122.432;2023-09-19T01:39:48;8;8;
80965;PMS5003;70426;37.772;-122.432;2023-09-19T01:42:13;9;9;
80965;PMS5003;70426;37.772;-122.432;2023-09-19T01:44:40;10;10;
80965;PMS5003;70426;37.772;-122.432;2023-09-19T01:47:04;10;10;
80965;PMS5003;70426;37.772;-122.432;2023-09-19T01:49:30;10;8;
80965;PMS5003;70426;37.772;-122.432;2023-09-19T01:51:55;11;10;
80965;PMS5003;70426;37.772;-122.432;2023-09-19T01:54:20;8;8;
80965;PMS5003;70426;37.772;-122.432;2023-09-19T01:56:45;9;8;
80965;PMS5003;70426;37.772;-122.432;2023-09-19T01:59:10;9;9;
80965;PMS5003;70426;37.772;-122.432;2023-09-19T02:01:33;12;12;
80965;PMS5003;70426;37.772;-122.432;2023-09-19T02:03:59;9;9;
80965;PMS5003;70426;37.772;-122.432;2023-09-19T02:06:24;10;9;
80965;PMS5003;70426;37.772;-122.432;2023-09-19T02:08:49;10;9;
80965;PMS5003;70426;37.772;-122.432;2023-09-19T02:11:14;9;9;
80965;PMS5003;70426;37.772;-122.432;2023-09-19T02:13:39;11;10;
80965;PMS5003;70426;37.772;-122.432;2023-09-19T02:16:04;10;10;
80965;PMS5003;70426;37.772;-122.432;2023-09-19T02:18:29;10;10;
80965;PMS5003;70426;37.772;-122.432;2023-09-19T02:20:54;12;12;
80965;PMS5003;70426;37.772;-122.432;2023-09-19T02:23:19;11;11;
80965;PMS5003;70426;37.772;-122.432;2023-09-19T02:28:09;12;12;
80965;PMS5003;70426;37.772;-122.432;2023-09-19T02:30:34;12;12;
80965;PMS5003;70426;37.772;-122.432;2023-09-19T02:32:59;12;12;
80965;PMS5003;70426;37.772;-122.432;2023-09-19T02:35:24;13;13;
80965;PMS5003;70426;37.772;-122.432;2023-09-19T02:37:49;10;10;
80965;PMS5003;70426;37.772;-122.432;2023-09-19T02:40:14;16;15;
80965;PMS5003;70426;37.772;-122.432;2023-09-19T02:42:39;12;11;
80965;PMS5003;70426;37.772;-122.432;2023-09-19T02:45:04;16;15;
80965;PMS5003;70426;37.772;-122.432;2023-09-19T02:47:35;15;14;
80965;PMS5003;70426;37.772;-122.432;2023-09-19T02:49:55;12;12;
80965;PMS5003;70426;37.772;-122.432;2023-09-19T02:52:20;9;9;
80965;PMS5003;70426;37.772;-122.432;2023-09-19T02:54:45;12;10;
80965;PMS5003;70426;37.772;-122.432;2023-09-19T02:57:10;12;12;
80965;PMS5003;70426;37.772;-122.432;2023-09-19T02:59:35;13;12;
80965;PMS5003;70426;37.772;-122.432;2023-09-19T03:02:00;13;11;
80965;PMS5003;70426;37.772;-122.432;2023-09-19T03:04:25;11;10;
80965;PMS5003;70426;37.772;-122.432;2023-09-19T03:06:50;12;12;
80965;PMS5003;70426;37.772;-122.432;2023-09-19T03:09:16;12;11;
80965;PMS5003;70426;37.772;-122.432;2023-09-19T03:11:42;12;12;
80965;PMS5003;70426;37.772;-122.432;2023-09-19T03:14:06;15;12;
80965;PMS5003;70426;37.772;-122.432;2023-09-19T03:16:31;14;12;
80965;PMS5003;70426;37.772;-122.432;2023-09-19T03:18:56;13;12;
80965;PMS5003;70426;37.772;-122.432;2023-09-19T03:21:21;14;13;
80965;PMS5003;70426;37.772;-122.432;2023-09-19T03:23:46;14;13;
80965;PMS5003;70426;37.772;-122.432;2023-09-19T03:26:11;13;10;
80965;PMS5003;70426;37.772;-122.432;2023-09-19T03:28:36;11;11;
80965;PMS5003;70426;37.772;-122.432;2023-09-19T03:31:01;12;12;
80965;PMS5003;70426;37.772;-122.432;2023-09-19T03:33:26;11;10;
80965;PMS5003;70426;37.772;-122.432;2023-09-19T03:35:52;13;13;
80965;PMS5003;70426;37.772;-122.432;2023-09-19T03:38:17;15;13;
80965;PMS5003;70426;37.772;-122.432;2023-09-19T03:40:44;13;11;
80965;PMS5003;70426;37.772;-122.432;2023-09-19T03:43:08;14;13;
80965;PMS5003;70426;37.772;-122.432;2023-09-19T03:45:33;14;12;
80965;PMS5003;70426;37.772;-122.432;2023-09-19T03:47:59;13;13;
80965;PMS5003;70426;37.772;-122.432;2023-09-19T03:50:24;11;11;
80965;PMS5003;70426;37.772;-122.432;2023-09-19T03:52:50;14;13;
80965;PMS5003;70426;37.772;-122.432;2023-09-19T03:55:15;17;16;
80965;PMS5003;70426;37.772;-122.432;2023-09-19T03:57:40;16;13;
80965;PMS5003;70426;37.772;-122.432;2023-09-19T04:00:05;14;13;
80965;PMS5003;70426;37.772;-122.432;2023-09-19T04:02:30;14;14;
80965;PMS5003;70426;37.772;-122.432;2023-09-19T04:04:55;13;12;
80965;PMS5003;70426;37.772;-122.432;2023-09-19T04:07:20;14;12;
80965;PMS5003;70426;37.772;-122.432;2023-09-19T04:09:46;15;14;
80965;PMS5003;70426;37.772;-122.432;2023-09-19T04:12:13;11;11;
80965;PMS5003;70426;37.772;-122.432;2023-09-19T04:14:36;14;13;
80965;PMS5003;70426;37.772;-122.432;2023-09-19T04:17:01;16;14;
80965;PMS5003;70426;37.772;-122.432;2023-09-19T04:19:26;12;12;
80965;PMS5003;70426;37.772;-122.432;2023-09-19T04:21:51;16;13;
80965;PMS5003;70426;37.772;-122.432;2023-09-19T04:24:17;15;14;
80965;PMS5003;70426;37.772;-122.432;2023-09-19T04:26:41;15;14;
80965;PMS5003;70426;37.772;-122.432;2023-09-19T04:29:07;16;16;
80965;PMS5003;70426;37.772;-122.432;2023-09-19T04:31:32;14;12;
80965;PMS5003;70426;37.772;-122.432;2023-09-19T04:33:58;16;15;
80965;PMS5003;70426;37.772;-122.432;2023-09-19T04:36:23;14;13;
80965;PMS5003;70426;37.772;-122.432;2023-09-19T04:38:48;17;16;
80965;PMS5003;70426;37.772;-122.432;2023-09-19T04:41:13;15;14;
80965;PMS5003;70426;37.772;-122.432;2023-09-19T04:43:38;14;14;
80965;PMS5003;70426;37.772;-122.432;2023-09-19T04:46:03;15;15;
80965;PMS5003;70426;37.772;-122.432;2023-09-19T04:48:29;20;18;
80965;PMS5003;70426;37.772;-122.432;2023-09-19T04:50:54;13;13;
80965;PMS5003;70426;37.772;-122.432;2023-09-19T04:53:19;15;15;
80965;PMS5003;70426;37.772;-122.432;2023-09-19T04:55:45;16;14;
80965;PMS5003;70426;37.772;-122.432;2023-09-19T04:58:10;16;14;
80965;PMS5003;70426;37.772;-122.432;2023-09-19T05:00:35;15;14;
80965;PMS5003;70426;37.772;-122.432;2023-09-19T05:03:05;15;15;
80965;PMS5003;70426;37.772;-122.432;2023-09-19T05:05:25;19;17;
80965;PMS5003;70426;37.772;-122.432;2023-09-19T05:07:50;16;15;
80965;PMS5003;70426;37.772;-122.432;2023-09-19T05:10:16;15;13;
80965;PMS5003;70426;37.772;-122.432;2023-09-19T05:12:41;15;14;
80965;PMS5003;70426;37.772;-122.432;2023-09-19T05:15:07;15;15;
80965;PMS5003;70426;37.772;-122.432;2023-09-19T05:17:32;16;15;
80965;PMS5003;70426;37.772;-122.432;2023-09-19T05:19:57;12;12;
80965;PMS5003;70426;37.772;-122.432;2023-09-19T05:22:23;13;13;
80965;PMS5003;70426;37.772;-122.432;2023-09-19T05:24:48;12;12;
80965;PMS5003;70426;37.772;-122.432;2023-09-19T05:27:13;16;15;
80965;PMS5003;70426;37.772;-122.432;2023-09-19T05:29:38;15;14;
80965;PMS5003;70426;37.772;-122.432;2023-09-19T05:32:04;16;13;
80965;PMS5003;70426;37.772;-122.432;2023-09-19T05:34:29;17;16;
80965;PMS5003;70426;37.772;-122.432;2023-09-19T05:36:55;16;15;
80965;PMS5003;70426;37.772;-122.432;2023-09-19T05:39:20;16;14;
80965;PMS5003;70426;37.772;-122.432;2023-09-19T05:41:45;15;15;
80965;PMS5003;70426;37.772;-122.432;2023-09-19T05:44:10;14;13;
80965;PMS5003;70426;37.772;-122.432;2023-09-19T05:46:35;16;14;
80965;PMS5003;70426;37.772;-122.432;2023-09-19T05:49:01;16;16;
80965;PMS5003;70426;37.772;-122.432;2023-09-19T05:51:25;17;16;
80965;PMS5003;70426;37.772;-122.432;2023-09-19T05:53:51;16;14;
80965;PMS5003;70426;37.772;-122.432;2023-09-19T05:56:16;21;17;
80965;PMS5003;70426;37.772;-122.432;2023-09-19T05:58:41;17;15;
80965;PMS5003;70426;37.772;-122.432;2023-09-19T06:01:06;16;16;
80965;PMS5003;70426;37.772;-122.432;2023-09-19T06:03:31;16;16;
80965;PMS5003;70426;37.772;-122.432;2023-09-19T06:05:56;17;16;
80965;PMS5003;70426;37.772;-122.432;2023-09-19T06:08:22;16;15;
80965;PMS5003;70426;37.772;-122.432;2023-09-19T06:10:47;17;16;
80965;PMS5003;70426;37.772;-122.432;2023-09-19T06:13:13;21;19;
80965;PMS5003;70426;37.772;-122.432;2023-09-19T06:15:38;21;19;
80965;PMS5003;70426;37.772;-122.432;2023-09-19T06:18:04;18;17;
80965;PMS5003;70426;37.772;-122.432;2023-09-19T06:20:29;19;19;
80965;PMS5003;70426;37.772;-122.432;2023-09-19T06:22:54;17;17;
80965;PMS5003;70426;37.772;-122.432;2023-09-19T06:25:21;18;18;
80965;PMS5003;70426;37.772;-122.432;2023-09-19T06:27:45;19;18;
80965;PMS5003;70426;37.772;-122.432;2023-09-19T06:30:10;21;18;
80965;PMS5003;70426;37.772;-122.432;2023-09-19T06:32:36;16;15;
80965;PMS5003;70426;37.772;-122.432;2023-09-19T06:35:06;19;18;
80965;PMS5003;70426;37.772;-122.432;2023-09-19T06:37:27;18;16;
80965;PMS5003;70426;37.772;-122.432;2023-09-19T06:39:52;17;17;
80965;PMS5003;70426;37.772;-122.432;2023-09-19T06:42:17;19;17;
80965;PMS5003;70426;37.772;-122.432;2023-09-19T06:44:42;18;17;
80965;PMS5003;70426;37.772;-122.432;2023-09-19T06:47:07;20;18;
80965;PMS5003;70426;37.772;-122.432;2023-09-19T06:49:33;20;19;
80965;PMS5003;70426;37.772;-122.432;2023-09-19T06:51:58;17;16;
80965;PMS5003;70426;37.772;-122.432;2023-09-19T06:54:23;17;15;
80965;PMS5003;70426;37.772;-122.432;2023-09-19T06:56:48;17;17;
80965;PMS5003;70426;37.772;-122.432;2023-09-19T06:59:13;21;20;
80965;PMS5003;70426;37.772;-122.432;2023-09-19T07:01:39;24;23;
80965;PMS5003;70426;37.772;-122.432;2023-09-19T07:04:04;19;18;
80965;PMS5003;70426;37.772;-122.432;2023-09-19T07:06:29;20;18;
80965;PMS5003;70426;37.772;-122.432;2023-09-19T07:08:55;19;16;
80965;PMS5003;70426;37.772;-122.432;2023-09-19T07:11:20;17;17;
80965;PMS5003;70426;37.772;-122.432;2023-09-19T07:13:46;20;18;
80965;PMS5003;70426;37.772;-122.432;2023-09-19T07:16:11;18;17;
80965;PMS5003;70426;37.772;-122.432;2023-09-19T07:18:36;16;15;
80965;PMS5003;70426;37.772;-122.432;2023-09-19T07:21:02;18;18;
80965;PMS5003;70426;37.772;-122.432;2023-09-19T07:23:27;19;19;
80965;PMS5003;70426;37.772;-122.432;2023-09-19T07:25:56;19;19;
80965;PMS5003;70426;37.772;-122.432;2023-09-19T07:28:18;14;14;
80965;PMS5003;70426;37.772;-122.432;2023-09-19T07:30:44;18;17;
80965;PMS5003;70426;37.772;-122.432;2023-09-19T07:33:09;19;17;
80965;PMS5003;70426;37.772;-122.432;2023-09-19T07:35:34;17;15;
80965;PMS5003;70426;37.772;-122.432;2023-09-19T07:38:00;19;17;
80965;PMS5003;70426;37.772;-122.432;2023-09-19T07:40:25;16;15;
80965;PMS5003;70426;37.772;-122.432;2023-09-19T07:42:50;18;17;
80965;PMS5003;70426;37.772;-122.432;2023-09-19T07:45:15;21;18;
80965;PMS5003;70426;37.772;-122.432;2023-09-19T07:47:44;21;18;
80965;PMS5003;70426;37.772;-122.432;2023-09-19T07:50:07;19;16;
80965;PMS5003;70426;37.772;-122.432;2023-09-19T07:52:32;17;16;
80965;PMS5003;70426;37.772;-122.432;2023-09-19T07:54:57;20;18;
80965;PMS5003;70426;37.772;-122.432;2023-09-19T07:57:22;16;16;
80965;PMS5003;70426;37.772;-122.432;2023-09-19T07:59:48;19;18;
80965;PMS5003;70426;37.772;-122.432;2023-09-19T08:02:14;20;20;
80965;PMS5003;70426;37.772;-122.432;2023-09-19T08:04:39;19;19;
80965;PMS5003;70426;37.772;-122.432;2023-09-19T08:07:04;19;18;
80965;PMS5003;70426;37.772;-122.432;2023-09-19T08:09:29;16;16;
80965;PMS5003;70426;37.772;-122.432;2023-09-19T08:11:54;20;20;
80965;PMS5003;70426;37.772;-122.432;2023-09-19T08:14:19;18;18;
80965;PMS5003;70426;37.772;-122.432;2023-09-19T08:16:44;20;20;
80965;PMS5003;70426;37.772;-122.432;2023-09-19T08:19:10;20;17;
80965;PMS5003;70426;37.772;-122.432;2023-09-19T08:21:35;22;20;
80965;PMS5003;70426;37.772;-122.432;2023-09-19T08:24:00;21;19;
80965;PMS5003;70426;37.772;-122.432;2023-09-19T08:26:26;20;20;
80965;PMS5003;70426;37.772;-122.432;2023-09-19T08:28:51;21;19;
80965;PMS5003;70426;37.772;-122.432;2023-09-19T08:31:16;25;19;
80965;PMS5003;70426;37.772;-122.432;2023-09-19T08:33:42;22;20;
80965;PMS5003;70426;37.772;-122.432;2023-09-19T08:36:08;19;18;
80965;PMS5003;70426;37.772;-122.432;2023-09-19T08:38:34;21;20;
80965;PMS5003;70426;37.772;-122.432;2023-09-19T08:40:58;17;17;
80965;PMS5003;70426;37.772;-122.432;2023-09-19T08:43:23;18;18;
80965;PMS5003;70426;37.772;-122.432;2023-09-19T08:45:48;27;25;
80965;PMS5003;70426;37.772;-122.432;2023-09-19T08:48:17;20;19;
80965;PMS5003;70426;37.772;-122.432;2023-09-19T08:50:42;22;21;
80965;PMS5003;70426;37.772;-122.432;2023-09-19T08:53:06;28;25;
80965;PMS5003;70426;37.772;-122.432;2023-09-19T08:55:29;17;16;
80965;PMS5003;70426;37.772;-122.432;2023-09-19T08:57:58;22;22;
80965;PMS5003;70426;37.772;-122.432;2023-09-19T09:00:21;24;20;
80965;PMS5003;70426;37.772;-122.432;2023-09-19T09:02:47;20;19;
80965;PMS5003;70426;37.772;-122.432;2023-09-19T09:05:12;19;18;
80965;PMS5003;70426;37.772;-122.432;2023-09-19T09:07:37;18;16;
80965;PMS5003;70426;37.772;-122.432;2023-09-19T09:10:02;21;20;
80965;PMS5003;70426;37.772;-122.432;2023-09-19T09:12:27;20;19;
80965;PMS5003;70426;37.772;-122.432;2023-09-19T09:14:52;20;18;
80965;PMS5003;70426;37.772;-122.432;2023-09-19T09:17:17;21;19;
80965;PMS5003;70426;37.772;-122.432;2023-09-19T09:19:42;19;18;
80965;PMS5003;70426;37.772;-122.432;2023-09-19T09:22:08;23;22;
80965;PMS5003;70426;37.772;-122.432;2023-09-19T09:24:33;17;16;
80965;PMS5003;70426;37.772;-122.432;2023-09-19T09:26:59;22;19;
80965;PMS5003;70426;37.772;-122.432;2023-09-19T09:31:49;20;19;
80965;PMS5003;70426;37.772;-122.432;2023-09-19T09:34:15;21;19;
80965;PMS5003;70426;37.772;-122.432;2023-09-19T09:36:40;23;22;
80965;PMS5003;70426;37.772;-122.432;2023-09-19T09:39:05;22;21;
80965;PMS5003;70426;37.772;-122.432;2023-09-19T09:43:56;21;20;
80965;PMS5003;70426;37.772;-122.432;2023-09-19T09:46:21;22;20;
80965;PMS5003;70426;37.772;-122.432;2023-09-19T09:48:46;20;19;
80965;PMS5003;70426;37.772;-122.432;2023-09-19T09:51:12;20;19;
80965;PMS5003;70426;37.772;-122.432;2023-09-19T09:53:37;26;25;
80965;PMS5003;70426;37.772;-122.432;2023-09-19T09:56:03;20;18;
80965;PMS5003;70426;37.772;-122.432;2023-09-19T09:58:28;24;20;
80965;PMS5003;70426;37.772;-122.432;2023-09-19T10:00:54;22;21;
80965;PMS5003;70426;37.772;-122.432;2023-09-19T10:03:19;22;21;
80965;PMS5003;70426;37.772;-122.432;2023-09-19T10:05:44;25;25;
80965;PMS5003;70426;37.772;-122.432;2023-09-19T10:08:11;25;22;
80965;PMS5003;70426;37.772;-122.432;2023-09-19T10:10:36;25;22;
80965;PMS5003;70426;37.772;-122.432;2023-09-19T10:13:00;23;21;
80965;PMS5003;70426;37.772;-122.432;2023-09-19T10:15:27;20;19;
80965;PMS5003;70426;37.772;-122.432;2023-09-19T10:17:52;24;23;
80965;PMS5003;70426;37.772;-122.432;2023-09-19T10:20:17;25;25;
80965;PMS5003;70426;37.772;-122.432;2023-09-19T10:22:43;24;22;
80965;PMS5003;70426;37.772;-122.432;2023-09-19T10:25:08;27;25;
80965;PMS5003;70426;37.772;-122.432;2023-09-19T10:27:34;21;21;
80965;PMS5003;70426;37.772;-122.432;2023-09-19T10:29:59;25;22;
80965;PMS5003;70426;37.772;-122.432;2023-09-19T10:32:24;22;20;
80965;PMS5003;70426;37.772;-122.432;2023-09-19T10:34:49;18;16;
80965;PMS5003;70426;37.772;-122.432;2023-09-19T10:37:15;24;22;
80965;PMS5003;70426;37.772;-122.432;2023-09-19T10:39:40;22;20;
80965;PMS5003;70426;37.772;-122.432;2023-09-19T10:42:05;28;24;
80965;PMS5003;70426;37.772;-122.432;2023-09-19T10:44:32;22;21;
80965;PMS5003;70426;37.772;-122.432;2023-09-19T10:46:56;23;18;
80965;PMS5003;70426;37.772;-122.432;2023-09-19T10:49:21;20;19;
80965;PMS5003;70426;37.772;-122.432;2023-09-19T10:51:48;21;20;
80965;PMS5003;70426;37.772;-122.432;2023-09-19T10:54:13;19;18;
80965;PMS5003;70426;37.772;-122.432;2023-09-19T10:56:38;22;21;
80965;PMS5003;70426;37.772;-122.432;2023-09-19T10:59:07;21;21;
80965;PMS5003;70426;37.772;-122.432;2023-09-19T11:06:20;24;23;
80965;PMS5003;70426;37.772;-122.432;2023-09-19T11:08:54;23;21;
80965;PMS5003;70426;37.772;-122.432;2023-09-19T11:13:36;24;23;
80965;PMS5003;70426;37.772;-122.432;2023-09-19T11:16:02;19;17;
80965;PMS5003;70426;37.772;-122.432;2023-09-19T11:23:18;20;18;
80965;PMS5003;70426;37.772;-122.432;2023-09-19T11:25:44;24;20;
80965;PMS5003;70426;37.772;-122.432;2023-09-19T11:30:35;20;19;
80965;PMS5003;70426;37.772;-122.432;2023-09-19T11:35:25;23;22;
80965;PMS5003;70426;37.772;-122.432;2023-09-19T11:40:16;17;17;
80965;PMS5003;70426;37.772;-122.432;2023-09-19T11:42:42;19;19;
80965;PMS5003;70426;37.772;-122.432;2023-09-19T11:45:07;20;20;
80965;PMS5003;70426;37.772;-122.432;2023-09-19T11:47:33;19;19;
80965;PMS5003;70426;37.772;-122.432;2023-09-19T11:49:58;18;18;
80965;PMS5003;70426;37.772;-122.432;2023-09-19T11:52:23;19;18;
80965;PMS5003;70426;37.772;-122.432;2023-09-19T11:54:49;17;15;
80965;PMS5003;70426;37.772;-122.432;2023-09-19T11:57:13;18;17;
80965;PMS5003;70426;37.772;-122.432;2023-09-19T11:59:39;24;22;
80965;PMS5003;70426;37.772;-122.432;2023-09-19T12:02:05;15;15;
80965;PMS5003;70426;37.772;-122.432;2023-09-19T12:04:34;16;16;
80965;PMS5003;70426;37.772;-122.432;2023-09-19T12:06:56;21;19;
80965;PMS5003;70426;37.772;-122.432;2023-09-19T12:09:20;19;18;
80965;PMS5003;70426;37.772;-122.432;2023-09-19T12:11:45;19;18;
80965;PMS5003;70426;37.772;-122.432;2023-09-19T12:14:10;22;18;
80965;PMS5003;70426;37.772;-122.432;2023-09-19T12:16:35;18;16;
80965;PMS5003;70426;37.772;-122.432;2023-09-19T12:21:28;20;19;
80965;PMS5003;70426;37.772;-122.432;2023-09-19T12:23:59;18;18;
80965;PMS5003;70426;37.772;-122.432;2023-09-19T12:26:17;19;18;
80965;PMS5003;70426;37.772;-122.432;2023-09-19T12:28:43;22;19;
80965;PMS5003;70426;37.772;-122.432;2023-09-19T12:31:08;18;16;
80965;PMS5003;70426;37.772;-122.432;2023-09-19T12:33:33;20;17;
80965;PMS5003;70426;37.772;-122.432;2023-09-19T12:35:58;19;19;
80965;PMS5003;70426;37.772;-122.432;2023-09-19T12:38:24;16;16;
80965;PMS5003;70426;37.772;-122.432;2023-09-19T12:40:49;17;17;
80965;PMS5003;70426;37.772;-122.432;2023-09-19T12:43:14;17;16;
80965;PMS5003;70426;37.772;-122.432;2023-09-19T12:45:39;22;20;
80965;PMS5003;70426;37.772;-122.432;2023-09-19T12:50:30;24;21;
80965;PMS5003;70426;37.772;-122.432;2023-09-19T12:52:56;24;23;
80965;PMS5003;70426;37.772;-122.432;2023-09-19T12:55:21;20;16;
80965;PMS5003;70426;37.772;-122.432;2023-09-19T13:00:11;22;19;
80965;PMS5003;70426;37.772;-122.432;2023-09-19T13:02:36;20;19;
80965;PMS5003;70426;37.772;-122.432;2023-09-19T13:05:01;21;20;
80965;PMS5003;70426;37.772;-122.432;2023-09-19T13:14:43;18;17;
80965;PMS5003;70426;37.772;-122.432;2023-09-19T13:17:08;19;19;
80965;PMS5003;70426;37.772;-122.432;2023-09-19T13:19:35;20;20;
80965;PMS5003;70426;37.772;-122.432;2023-09-19T13:21:59;20;18;
80965;PMS5003;70426;37.772;-122.432;2023-09-19T13:24:25;20;18;
80965;PMS5003;70426;37.772;-122.432;2023-09-19T13:26:50;18;18;
80965;PMS5003;70426;37.772;-122.432;2023-09-19T13:29:15;18;17;
80965;PMS5003;70426;37.772;-122.432;2023-09-19T13:31:40;23;23;
80965;PMS5003;70426;37.772;-122.432;2023-09-19T13:34:06;19;18;
80965;PMS5003;70426;37.772;-122.432;2023-09-19T13:36:31;19;17;
80965;PMS5003;70426;37.772;-122.432;2023-09-19T13:38:57;18;17;
80965;PMS5003;70426;37.772;-122.432;2023-09-19T13:41:24;19;17;
80965;PMS5003;70426;37.772;-122.432;2023-09-19T13:43:48;25;22;
80965;PMS5003;70426;37.772;-122.432;2023-09-19T13:46:13;23;20;
80965;PMS5003;70426;37.772;-122.432;2023-09-19T13:48:39;18;18;
80965;PMS5003;70426;37.772;-122.432;2023-09-19T13:51:05;20;19;
80965;PMS5003;70426;37.772;-122.432;2023-09-19T13:53:30;19;19;
80965;PMS5003;70426;37.772;-122.432;2023-09-19T13:55:55;18;16;
80965;PMS5003;70426;37.772;-122.432;2023-09-19T13:58:20;24;24;
80965;PMS5003;70426;37.772;-122.432;2023-09-19T14:00:46;22;21;
80965;PMS5003;70426;37.772;-122.432;2023-09-19T14:03:11;19;19;
80965;PMS5003;70426;37.772;-122.432;2023-09-19T14:05:36;16;16;
80965;PMS5003;70426;37.772;-122.432;2023-09-19T14:08:02;18;17;
80965;PMS5003;70426;37.772;-122.432;2023-09-19T14:10:27;19;18;
80965;PMS5003;70426;37.772;-122.432;2023-09-19T14:12:52;19;19;
80965;PMS5003;70426;37.772;-122.432;2023-09-19T14:15:17;18;17;
80965;PMS5003;70426;37.772;-122.432;2023-09-19T14:17:43;17;16;
80965;PMS5003;70426;37.772;-122.432;2023-09-19T14:20:09;21;19;
80965;PMS5003;70426;37.772;-122.432;2023-09-19T14:22:34;19;18;
80965;PMS5003;70426;37.772;-122.432;2023-09-19T14:24:59;19;19;
80965;PMS5003;70426;37.772;-122.432;2023-09-19T14:27:25;20;19;
80965;PMS5003;70426;37.772;-122.432;2023-09-19T14:29:50;18;17;
80965;PMS5003;70426;37.772;-122.432;2023-09-19T14:32:15;18;18;
80965;PMS5003;70426;37.772;-122.432;2023-09-19T14:34:40;31;29;
80965;PMS5003;70426;37.772;-122.432;2023-09-19T14:37:05;26;21;
80965;PMS5003;70426;37.772;-122.432;2023-09-19T14:39:31;20;20;
80965;PMS5003;70426;37.772;-122.432;2023-09-19T14:41:57;21;20;
80965;PMS5003;70426;37.772;-122.432;2023-09-19T14:44:22;25;23;
80965;PMS5003;70426;37.772;-122.432;2023-09-19T14:46:48;22;20;
80965;PMS5003;70426;37.772;-122.432;2023-09-19T14:49:13;23;23;
80965;PMS5003;70426;37.772;-122.432;2023-09-19T14:51:39;22;20;
80965;PMS5003;70426;37.772;-122.432;2023-09-19T14:54:04;22;21;
80965;PMS5003;70426;37.772;-122.432;2023-09-19T14:56:29;24;21;
80965;PMS5003;70426;37.772;-122.432;2023-09-19T14:58:54;23;21;
80965;PMS5003;70426;37.772;-122.432;2023-09-19T15:01:19;20;20;
80965;PMS5003;70426;37.772;-122.432;2023-09-19T15:03:44;26;23;
80965;PMS5003;70426;37.772;-122.432;2023-09-19T15:06:10;21;21;
80965;PMS5003;70426;37.772;-122.432;2023-09-19T15:08:35;21;20;
80965;PMS5003;70426;37.772;-122.432;2023-09-19T15:11:00;23;20;
80965;PMS5003;70426;37.772;-122.432;2023-09-19T15:13:25;20;20;
80965;PMS5003;70426;37.772;-122.432;2023-09-19T15:15:51;23;22;
80965;PMS5003;70426;37.772;-122.432;2023-09-19T15:18:16;22;21;
80965;PMS5003;70426;37.772;-122.432;2023-09-19T15:20:43;22;20;
80965;PMS5003;70426;37.772;-122.432;2023-09-19T15:23:07;23;22;
80965;PMS5003;70426;37.772;-122.432;2023-09-19T15:25:32;23;22;
80965;PMS5003;70426;37.772;-122.432;2023-09-19T15:27:57;25;25;
80965;PMS5003;70426;37.772;-122.432;2023-09-19T15:30:23;25;23;
80965;PMS5003;70426;37.772;-122.432;2023-09-19T15:32:48;23;21;
80965;PMS5003;70426;37.772;-122.432;2023-09-19T15:35:14;26;24;
80965;PMS5003;70426;37.772;-122.432;2023-09-19T15:37:39;20;20;
80965;PMS5003;70426;37.772;-122.432;2023-09-19T15:40:05;27;25;
80965;PMS5003;70426;37.772;-122.432;2023-09-19T15:42:30;23;23;
80965;PMS5003;70426;37.772;-122.432;2023-09-19T15:44:55;26;22;
80965;PMS5003;70426;37.772;-122.432;2023-09-19T15:47:20;22;22;
80965;PMS5003;70426;37.772;-122.432;2023-09-19T15:49:47;28;25;
80965;PMS5003;70426;37.772;-122.432;2023-09-19T15:52:12;28;25;
80965;PMS5003;70426;37.772;-122.432;2023-09-19T15:54:38;29;26;
80965;PMS5003;70426;37.772;-122.432;2023-09-19T15:57:03;30;27;
80965;PMS5003;70426;37.772;-122.432;2023-09-19T15:59:28;33;29;
80965;PMS5003;70426;37.772;-122.432;2023-09-19T16:01:54;34;31;
80965;PMS5003;70426;37.772;-122.432;2023-09-19T16:04:19;38;34;
80965;PMS5003;70426;37.772;-122.432;2023-09-19T16:06:44;33;32;